createdAt,value
2017-11-22T00:01:52.243Z,9.73
2017-11-22T00:04:19.706Z,5.30
2017-11-22T00:06:47.273Z,4.25
2017-11-22T00:09:14.720Z,9.65
2017-11-22T00:11:42.177Z,4.10
2017-11-22T00:14:09.726Z,6.22
2017-11-22T00:16:37.291Z,5.87
2017-11-22T00:19:04.756Z,7.60
2017-11-22T00:21:32.263Z,4.32
2017-11-22T00:23:59.763Z,7.85
2017-11-22T00:26:27.320Z,4.55
2017-11-22T00:28:54.878Z,7.00
2017-11-22T00:31:22.360Z,5.82
2017-11-22T00:33:50.602Z,3.87
2017-11-22T00:36:18.162Z,4.75
2017-11-22T00:38:45.619Z,3.87
2017-11-22T00:41:13.075Z,4.22
2017-11-22T00:43:40.530Z,3.55
2017-11-22T00:46:08.094Z,3.92
2017-11-22T00:48:35.557Z,3.85
2017-11-22T00:51:03.003Z,3.65
2017-11-22T00:53:30.567Z,6.57
2017-11-22T00:55:58.083Z,4.50
2017-11-22T00:58:25.591Z,3.83
2017-11-22T01:00:53.135Z,3.53
2017-11-22T01:03:20.602Z,3.03
2017-11-22T01:05:48.151Z,3.55
2017-11-22T01:08:15.715Z,7.37
2017-11-22T01:10:43.171Z,6.10
2017-11-22T01:13:10.694Z,6.70
2017-11-22T01:15:38.248Z,5.82
2017-11-22T01:18:05.744Z,4.03
2017-11-22T01:20:33.198Z,4.70
2017-11-22T01:23:01.434Z,4.45
2017-11-22T01:25:28.938Z,5.70
2017-11-22T01:27:56.490Z,4.10
2017-11-22T01:30:23.945Z,3.85
2017-11-22T01:32:51.507Z,5.32
2017-11-22T01:35:19.057Z,3.15
2017-11-22T01:37:46.527Z,5.62
2017-11-22T01:40:14.146Z,3.30
2017-11-22T01:42:41.614Z,6.30
2017-11-22T01:45:09.079Z,4.90
2017-11-22T01:47:36.541Z,6.35
2017-11-22T01:50:04.105Z,6.32
2017-11-22T01:52:31.561Z,9.20
2017-11-22T01:54:59.043Z,7.07
2017-11-22T01:57:26.494Z,8.48
2017-11-22T01:59:55.457Z,7.03
2017-11-22T02:02:22.932Z,8.48
2017-11-22T02:04:50.487Z,10.55
2017-11-22T02:07:17.952Z,9.80
2017-11-22T02:09:45.397Z,9.50
2017-11-22T02:12:12.968Z,14.15
2017-11-22T02:14:41.253Z,12.82
2017-11-22T02:17:08.719Z,9.70
2017-11-22T02:19:36.969Z,12.00
2017-11-22T02:22:04.440Z,13.65
2017-11-22T02:24:32.667Z,17.73
2017-11-22T02:27:00.161Z,13.93
2017-11-22T02:29:27.714Z,14.85
2017-11-22T02:31:55.208Z,11.45
2017-11-22T02:34:22.670Z,13.85
2017-11-22T02:36:50.137Z,17.83
2017-11-22T02:39:17.707Z,13.57
2017-11-22T02:41:45.213Z,14.60
2017-11-22T02:44:12.757Z,8.90
2017-11-22T02:46:40.372Z,9.82
2017-11-22T02:49:07.848Z,9.48
2017-11-22T02:51:35.398Z,10.38
2017-11-22T02:54:02.863Z,12.70
2017-11-22T02:56:30.365Z,9.02
2017-11-22T02:58:57.827Z,9.23
2017-11-22T03:01:25.291Z,10.32
2017-11-22T03:03:53.608Z,6.87
2017-11-22T03:06:21.279Z,7.45
2017-11-22T03:08:49.357Z,5.87
2017-11-22T03:11:17.183Z,5.97
2017-11-22T03:13:44.761Z,5.47
2017-11-22T03:16:12.252Z,6.82
2017-11-22T03:18:39.875Z,7.37
2017-11-22T03:21:07.333Z,6.07
2017-11-22T03:23:34.803Z,10.32
2017-11-22T03:26:02.295Z,7.20
2017-11-22T03:28:30.528Z,7.82
2017-11-22T03:30:58.025Z,8.23
2017-11-22T03:33:25.586Z,7.95
2017-11-22T03:35:53.060Z,8.15
2017-11-22T03:38:21.306Z,8.77
2017-11-22T03:40:48.779Z,11.80
2017-11-22T03:43:16.233Z,11.57
2017-11-22T03:45:43.692Z,10.95
2017-11-22T03:48:15.957Z,12.63
2017-11-22T03:50:49.149Z,14.10
2017-11-22T03:53:22.393Z,15.30
2017-11-22T03:55:49.904Z,15.10
2017-11-22T03:58:17.362Z,14.18
2017-11-22T04:00:44.823Z,16.60
2017-11-22T04:03:13.078Z,13.57
2017-11-22T04:05:46.328Z,17.20
2017-11-22T04:08:17.749Z,14.27
2017-11-22T04:10:47.770Z,16.10
2017-11-22T04:13:16.018Z,18.25
2017-11-22T04:15:43.479Z,21.95
2017-11-22T04:18:10.947Z,18.98
2017-11-22T04:20:56.052Z,19.87
2017-11-22T04:23:23.559Z,14.57
2017-11-22T04:25:51.056Z,18.95
2017-11-22T04:28:18.523Z,16.62
2017-11-22T04:30:46.088Z,18.30
2017-11-22T04:33:13.594Z,21.12
2017-11-22T04:35:41.051Z,14.35
2017-11-22T04:38:09.289Z,15.50
2017-11-22T04:40:36.794Z,22.42
2017-11-22T04:43:06.844Z,18.80
2017-11-22T04:45:34.359Z,16.08
2017-11-22T04:48:01.915Z,21.55
2017-11-22T04:50:30.240Z,16.85
2017-11-22T04:52:57.728Z,14.35
2017-11-22T04:55:25.215Z,18.48
2017-11-22T04:57:53.458Z,21.75
2017-11-22T05:00:20.931Z,18.10
2017-11-22T05:02:48.446Z,16.70
2017-11-22T05:05:15.899Z,15.25
2017-11-22T05:07:43.407Z,16.95
2017-11-22T05:10:10.875Z,22.73
2017-11-22T05:12:39.139Z,19.23
2017-11-22T05:15:07.378Z,14.63
2017-11-22T05:17:34.883Z,16.67
2017-11-22T05:20:03.115Z,16.35
2017-11-22T05:22:30.571Z,14.00
2017-11-22T05:24:58.064Z,14.02
2017-11-22T05:27:25.574Z,15.38
2017-11-22T05:29:53.063Z,14.55
2017-11-22T05:32:20.631Z,18.95
2017-11-22T05:34:48.102Z,12.57
2017-11-22T05:37:15.566Z,14.55
2017-11-22T05:39:43.980Z,15.27
2017-11-22T05:42:11.512Z,11.40
2017-11-22T05:44:40.023Z,16.10
2017-11-22T05:47:07.543Z,20.42
2017-11-22T05:49:35.801Z,14.20
2017-11-22T05:52:03.517Z,12.27
2017-11-22T05:54:31.134Z,14.00
2017-11-22T05:56:58.595Z,19.08
2017-11-22T05:59:26.850Z,17.67
2017-11-22T06:01:54.317Z,15.80
2017-11-22T06:04:21.863Z,10.85
2017-11-22T06:06:49.417Z,18.65
2017-11-22T06:09:16.873Z,14.38
2017-11-22T06:11:44.334Z,13.60
2017-11-22T06:14:11.899Z,18.65
2017-11-22T06:16:39.654Z,14.80
2017-11-22T06:19:07.118Z,13.93
2017-11-22T06:21:34.664Z,19.12
2017-11-22T06:24:02.135Z,15.40
2017-11-22T06:26:29.695Z,15.90
2017-11-22T06:28:58.661Z,18.30
2017-11-22T06:31:26.114Z,13.02
2017-11-22T06:33:53.594Z,20.85
2017-11-22T06:36:21.050Z,12.80
2017-11-22T06:38:48.567Z,19.62
2017-11-22T06:41:16.018Z,16.48
2017-11-22T06:43:43.483Z,13.98
2017-11-22T06:46:10.948Z,14.73
2017-11-22T06:48:38.427Z,15.20
2017-11-22T06:51:05.999Z,17.58
2017-11-22T06:53:33.851Z,15.32
2017-11-22T06:56:01.310Z,15.77
2017-11-22T06:58:28.774Z,20.45
2017-11-22T07:00:56.243Z,14.77
2017-11-22T07:06:21.349Z,14.20
2017-11-22T07:08:48.822Z,20.02
2017-11-22T07:11:16.286Z,18.58
2017-11-22T07:13:44.553Z,21.83
2017-11-22T07:16:17.800Z,14.13
2017-11-22T07:18:45.280Z,16.48
2017-11-22T07:21:12.733Z,18.27
2017-11-22T07:23:40.189Z,17.05
2017-11-22T07:26:07.662Z,13.13
2017-11-22T07:28:35.214Z,18.45
2017-11-22T07:31:04.309Z,12.50
2017-11-22T07:33:31.765Z,14.75
2017-11-22T07:36:05.121Z,14.48
2017-11-22T07:38:32.623Z,17.20
2017-11-22T07:41:00.089Z,15.50
2017-11-22T07:43:27.559Z,17.60
2017-11-22T07:45:55.788Z,15.70
2017-11-22T07:48:23.250Z,15.18
2017-11-22T07:50:50.715Z,20.02
2017-11-22T07:53:18.286Z,16.67
2017-11-22T07:55:48.710Z,15.98
2017-11-22T07:58:16.261Z,13.25
2017-11-22T08:00:43.823Z,18.85
2017-11-22T08:03:11.683Z,12.02
2017-11-22T08:05:39.151Z,17.37
2017-11-22T08:08:06.764Z,11.93
2017-11-22T08:10:34.258Z,18.62
2017-11-22T08:13:01.827Z,14.30
2017-11-22T08:15:29.282Z,12.95
2017-11-22T08:17:56.763Z,11.32
2017-11-22T08:20:25.010Z,19.05
2017-11-22T08:22:52.562Z,12.63
2017-11-22T08:25:21.873Z,13.93
2017-11-22T08:27:49.430Z,12.15
2017-11-22T08:30:16.891Z,11.35
2017-11-22T08:32:44.402Z,13.20
2017-11-22T08:35:11.861Z,15.50
2017-11-22T08:37:39.317Z,13.62
2017-11-22T08:40:06.788Z,14.55
2017-11-22T08:42:37.014Z,15.73
2017-11-22T08:45:04.493Z,10.52
2017-11-22T08:47:31.966Z,14.25
2017-11-22T08:50:00.285Z,13.50
2017-11-22T08:52:27.784Z,10.98
2017-11-22T08:55:01.113Z,12.73
2017-11-22T08:57:35.118Z,14.32
2017-11-22T09:00:08.991Z,9.50
2017-11-22T09:02:38.992Z,8.82
2017-11-22T09:05:06.445Z,11.65
2017-11-22T09:07:33.932Z,14.13
2017-11-22T09:10:02.152Z,12.77
2017-11-22T09:12:35.385Z,12.82
2017-11-22T09:17:36.863Z,11.73
2017-11-22T09:20:06.127Z,16.23
2017-11-22T09:22:33.597Z,9.35
2017-11-22T09:25:02.992Z,10.35
2017-11-22T09:27:36.156Z,9.60
2017-11-22T09:30:18.270Z,13.38
2017-11-22T09:32:45.733Z,12.60
2017-11-22T09:35:16.042Z,14.15
2017-11-22T09:37:43.546Z,12.37
2017-11-22T09:40:11.093Z,12.05
2017-11-22T09:42:38.565Z,14.63
2017-11-22T09:45:06.795Z,11.52
2017-11-22T09:47:34.299Z,9.82
2017-11-22T09:50:01.754Z,11.88
2017-11-22T09:52:29.310Z,11.45
2017-11-22T09:54:56.866Z,13.62
2017-11-22T09:57:24.432Z,12.90
2017-11-22T09:59:51.986Z,10.20
2017-11-22T10:02:19.542Z,11.07
2017-11-22T10:04:47.780Z,13.07
2017-11-22T10:07:15.256Z,9.02
2017-11-22T10:09:42.710Z,10.82
2017-11-22T10:12:10.181Z,9.98
2017-11-22T10:14:37.643Z,9.63
2017-11-22T10:17:10.768Z,11.82
2017-11-22T10:22:45.060Z,9.75
2017-11-22T10:25:12.524Z,12.75
2017-11-22T10:27:42.952Z,13.68
2017-11-22T10:30:13.350Z,11.10
2017-11-22T10:32:46.544Z,11.60
2017-11-22T10:35:14.007Z,12.45
2017-11-22T10:37:41.479Z,10.55
2017-11-22T10:40:08.943Z,9.27
2017-11-22T10:42:36.504Z,10.55
2017-11-22T10:45:04.060Z,15.75
2017-11-22T10:47:31.636Z,13.18
2017-11-22T10:49:59.863Z,8.55
2017-11-22T10:52:27.342Z,9.95
2017-11-22T10:54:54.906Z,7.30
2017-11-22T10:57:22.464Z,9.32
2017-11-22T10:59:50.023Z,10.15
2017-11-22T11:02:18.266Z,10.45
2017-11-22T11:04:45.733Z,11.00
2017-11-22T11:07:13.237Z,6.60
2017-11-22T11:09:41.464Z,8.52
2017-11-22T11:12:08.926Z,7.85
2017-11-22T11:14:36.431Z,11.27
2017-11-22T11:17:04.665Z,23.33
2017-11-22T11:19:32.190Z,6.87
2017-11-22T11:21:59.686Z,13.45
2017-11-22T11:24:28.282Z,9.40
2017-11-22T11:26:55.940Z,7.95
2017-11-22T11:29:24.171Z,7.80
2017-11-22T11:31:51.662Z,8.30
2017-11-22T11:34:19.126Z,6.30
2017-11-22T11:36:46.611Z,7.68
2017-11-22T11:39:14.859Z,6.80
2017-11-22T11:41:42.322Z,9.27
2017-11-22T11:44:09.862Z,8.68
2017-11-22T11:46:37.323Z,9.13
2017-11-22T11:49:04.885Z,7.47
2017-11-22T11:51:32.342Z,13.35
2017-11-22T11:53:59.962Z,9.52
2017-11-22T11:56:27.463Z,6.40
2017-11-22T11:58:54.940Z,8.20
2017-11-22T12:01:23.192Z,10.80
2017-11-22T12:03:50.692Z,5.62
2017-11-22T12:06:18.149Z,7.35
2017-11-22T12:08:45.731Z,11.23
2017-11-22T12:11:13.222Z,8.00
2017-11-22T12:13:40.699Z,7.62
2017-11-22T12:16:08.955Z,7.57
2017-11-22T12:18:36.427Z,7.72
2017-11-22T12:21:05.795Z,8.80
2017-11-22T12:23:36.033Z,8.10
2017-11-22T12:26:03.501Z,10.57
2017-11-22T12:28:30.953Z,9.90
2017-11-22T12:30:58.429Z,7.87
2017-11-22T12:33:26.666Z,16.27
2017-11-22T12:35:54.152Z,8.93
2017-11-22T12:38:24.200Z,8.13
2017-11-22T12:40:51.673Z,6.25
2017-11-22T12:43:19.242Z,12.60
2017-11-22T12:45:46.721Z,14.05
2017-11-22T12:48:14.194Z,8.10
2017-11-22T12:50:42.519Z,9.57
2017-11-22T12:53:10.029Z,6.07
2017-11-22T12:55:38.275Z,10.73
2017-11-22T12:58:14.319Z,7.78
2017-11-22T13:00:41.814Z,7.75
2017-11-22T13:03:09.287Z,9.38
2017-11-22T13:05:37.538Z,5.68
2017-11-22T13:08:05.103Z,13.52
2017-11-22T13:10:33.485Z,10.70
2017-11-22T13:13:01.742Z,7.07
2017-11-22T13:15:29.279Z,7.50
2017-11-22T13:17:57.748Z,9.88
2017-11-22T13:20:26.342Z,13.35
2017-11-22T13:22:53.938Z,9.18
2017-11-22T13:25:22.181Z,10.15
2017-11-22T13:27:49.657Z,6.85
2017-11-22T13:30:17.135Z,7.22
2017-11-22T13:32:45.401Z,18.37
2017-11-22T13:35:12.869Z,12.73
2017-11-22T13:37:41.098Z,10.02
2017-11-22T13:40:08.571Z,13.43
2017-11-22T13:42:36.042Z,8.63
2017-11-22T13:45:08.419Z,11.63
2017-11-22T13:47:35.878Z,15.82
2017-11-22T13:50:04.150Z,9.00
2017-11-22T13:52:32.411Z,12.88
2017-11-22T13:54:59.974Z,8.90
2017-11-22T13:57:27.540Z,11.27
2017-11-22T13:59:55.032Z,8.55
2017-11-22T14:02:22.547Z,10.90
2017-11-22T14:04:50.021Z,15.00
2017-11-22T14:07:18.282Z,10.68
2017-11-22T14:09:45.851Z,9.82
2017-11-22T14:12:13.321Z,8.57
2017-11-22T14:14:41.561Z,10.60
2017-11-22T14:17:09.021Z,10.30
2017-11-22T14:19:36.488Z,9.57
2017-11-22T14:22:03.963Z,16.15
2017-11-22T14:24:32.197Z,10.20
2017-11-22T14:26:59.679Z,10.65
2017-11-22T14:29:27.239Z,14.57
2017-11-22T14:31:54.706Z,7.87
2017-11-22T14:34:22.255Z,12.32
2017-11-22T14:36:49.722Z,7.07
2017-11-22T14:39:17.966Z,16.73
2017-11-22T14:41:45.542Z,8.55
2017-11-22T14:44:14.542Z,7.47
2017-11-22T14:46:42.096Z,8.20
2017-11-22T14:49:09.657Z,10.23
2017-11-22T14:51:37.121Z,12.63
2017-11-22T14:54:05.394Z,12.40
2017-11-22T14:56:32.946Z,15.07
2017-11-22T14:59:00.457Z,10.25
2017-11-22T15:01:27.927Z,8.75
2017-11-22T15:03:55.399Z,9.45
2017-11-22T15:06:22.853Z,8.50
2017-11-22T15:08:50.434Z,12.75
2017-11-22T15:11:17.936Z,8.88
2017-11-22T15:13:45.438Z,8.75
2017-11-22T15:16:12.914Z,12.55
2017-11-22T15:18:40.468Z,10.77
2017-11-22T15:21:08.014Z,8.85
2017-11-22T15:23:35.503Z,8.60
2017-11-22T15:26:03.753Z,11.60
2017-11-22T15:28:31.323Z,10.85
2017-11-22T15:30:58.883Z,11.15
2017-11-22T15:33:26.483Z,10.77
2017-11-22T15:35:53.956Z,9.70
2017-11-22T15:38:21.422Z,10.15
2017-11-22T15:40:48.899Z,11.65
2017-11-22T15:43:16.367Z,7.55
2017-11-22T15:45:43.846Z,10.75
2017-11-22T15:48:12.075Z,9.82
2017-11-22T15:50:39.663Z,9.00
2017-11-22T15:53:07.132Z,8.93
2017-11-22T15:55:35.440Z,9.05
2017-11-22T15:58:02.930Z,10.63
2017-11-22T16:00:30.495Z,11.63
2017-11-22T16:02:58.054Z,12.68
2017-11-22T16:05:25.527Z,17.15
2017-11-22T16:07:53.130Z,9.85
2017-11-22T16:10:20.595Z,11.10
2017-11-22T16:12:48.078Z,14.90
2017-11-22T16:15:15.551Z,10.70
2017-11-22T16:17:43.005Z,15.27
2017-11-22T16:20:10.567Z,13.93
2017-11-22T16:22:38.124Z,19.70
2017-11-22T16:25:05.683Z,14.82
2017-11-22T16:27:33.243Z,12.63
2017-11-22T16:30:00.808Z,15.35
2017-11-22T16:32:28.269Z,17.30
2017-11-22T16:34:56.501Z,16.10
2017-11-22T16:37:23.981Z,20.33
2017-11-22T16:39:51.457Z,15.93
2017-11-22T16:42:19.697Z,16.48
2017-11-22T16:44:47.163Z,15.18
2017-11-22T16:47:14.731Z,15.40
2017-11-22T16:49:42.279Z,19.35
2017-11-22T16:52:09.749Z,16.65
2017-11-22T16:54:37.318Z,19.10
2017-11-22T16:57:05.555Z,14.75
2017-11-22T16:59:33.047Z,14.63
2017-11-22T17:02:00.603Z,17.50
2017-11-22T17:04:28.069Z,13.98
2017-11-22T17:06:56.336Z,14.27
2017-11-22T17:09:23.891Z,18.95
2017-11-22T17:11:51.390Z,20.08
2017-11-22T17:14:18.918Z,20.95
2017-11-22T17:16:47.175Z,14.20
2017-11-22T17:19:14.655Z,22.35
2017-11-22T17:21:42.972Z,13.88
2017-11-22T17:24:10.460Z,14.52
2017-11-22T17:26:38.694Z,13.98
2017-11-22T17:29:06.170Z,14.75
2017-11-22T17:31:33.664Z,16.00
2017-11-22T17:34:01.143Z,17.15
2017-11-22T17:36:29.386Z,15.20
2017-11-22T17:38:56.858Z,15.15
2017-11-22T17:41:25.139Z,17.17
2017-11-22T17:43:52.608Z,11.45
2017-11-22T17:46:20.138Z,11.25
2017-11-22T17:48:47.604Z,9.85
2017-11-22T17:51:15.847Z,19.50
2017-11-22T17:53:43.338Z,14.55
2017-11-22T17:56:10.946Z,12.37
2017-11-22T17:58:38.403Z,10.35
2017-11-22T18:01:05.872Z,11.27
2017-11-22T18:03:33.332Z,16.08
2017-11-22T18:06:00.819Z,13.48
2017-11-22T18:08:28.384Z,12.05
2017-11-22T18:10:55.853Z,12.65
2017-11-22T18:13:24.109Z,15.82
2017-11-22T18:15:51.599Z,13.00
2017-11-22T18:18:19.839Z,14.70
2017-11-22T18:20:47.324Z,11.63
2017-11-22T18:23:14.794Z,16.08
2017-11-22T18:25:42.257Z,12.70
2017-11-22T18:28:09.775Z,15.13
2017-11-22T18:30:37.245Z,12.75
2017-11-22T18:33:05.479Z,10.98
2017-11-22T18:35:32.951Z,9.88
2017-11-22T18:38:00.505Z,12.07
2017-11-22T18:40:27.978Z,13.62
2017-11-22T18:42:55.523Z,15.13
2017-11-22T18:45:23.009Z,15.07
2017-11-22T18:47:51.362Z,11.23
2017-11-22T18:50:18.855Z,11.75
2017-11-22T18:52:47.079Z,14.30
2017-11-22T18:55:14.721Z,14.93
2017-11-22T18:57:42.177Z,16.55
2017-11-22T19:00:09.634Z,17.10
2017-11-22T19:02:37.134Z,13.07
2017-11-22T19:05:05.390Z,14.23
2017-11-22T19:07:32.958Z,15.82
2017-11-22T19:10:00.437Z,20.10
2017-11-22T19:12:28.664Z,16.90
2017-11-22T19:14:56.127Z,19.12
2017-11-22T19:17:23.605Z,14.15
2017-11-22T19:19:51.062Z,12.82
2017-11-22T19:22:18.632Z,13.35
2017-11-22T19:24:46.081Z,14.57
2017-11-22T19:27:13.647Z,14.73
2017-11-22T19:29:41.101Z,15.90
2017-11-22T19:32:08.604Z,14.50
2017-11-22T19:34:36.101Z,16.00
2017-11-22T19:37:03.559Z,17.30
2017-11-22T19:39:31.030Z,14.13
2017-11-22T19:41:59.303Z,15.70
2017-11-22T19:44:26.860Z,17.48
2017-11-22T19:46:54.315Z,16.45
2017-11-22T19:49:21.778Z,18.95
2017-11-22T19:51:49.242Z,14.23
2017-11-22T19:54:17.508Z,16.25
2017-11-22T19:56:45.053Z,17.45
2017-11-22T19:59:12.515Z,14.02
2017-11-22T20:01:40.075Z,20.23
2017-11-22T20:04:07.536Z,12.75
2017-11-22T20:06:35.012Z,16.52
2017-11-22T20:09:03.235Z,14.90
2017-11-22T20:11:30.722Z,14.25
2017-11-22T20:13:58.284Z,14.15
2017-11-22T20:16:25.839Z,14.07
2017-11-22T20:18:53.299Z,15.05
2017-11-22T20:21:20.765Z,25.52
2017-11-22T20:23:49.018Z,19.15
2017-11-22T20:26:16.489Z,19.75
2017-11-22T20:28:43.953Z,14.93
2017-11-22T20:31:11.434Z,17.70
2017-11-22T20:33:38.894Z,15.88
2017-11-22T20:36:06.355Z,18.50
2017-11-22T20:38:33.924Z,15.50
2017-11-22T20:41:01.383Z,14.87
2017-11-22T20:43:28.873Z,17.98
2017-11-22T20:45:57.841Z,15.75
2017-11-22T20:48:25.315Z,19.80
2017-11-22T20:50:52.782Z,21.25
2017-11-22T20:53:20.348Z,20.02
2017-11-22T20:55:47.908Z,16.37
2017-11-22T20:58:15.464Z,18.83
2017-11-22T21:00:42.924Z,17.92
2017-11-22T21:03:10.491Z,15.82
2017-11-22T21:05:37.951Z,19.00
2017-11-22T21:08:06.169Z,17.58
2017-11-22T21:10:33.625Z,16.67
2017-11-22T21:13:01.100Z,17.35
2017-11-22T21:15:28.568Z,17.15
2017-11-22T21:17:56.025Z,17.10
2017-11-22T21:20:23.595Z,16.12
2017-11-22T21:22:51.160Z,24.30
2017-11-22T21:25:18.659Z,15.57
2017-11-22T21:27:46.133Z,15.80
2017-11-22T21:30:13.599Z,17.00
2017-11-22T21:32:41.082Z,17.55
2017-11-22T21:35:09.357Z,14.80
2017-11-22T21:37:36.809Z,15.38
2017-11-22T21:40:04.371Z,20.35
2017-11-22T21:42:31.934Z,17.98
2017-11-22T21:44:59.554Z,22.92
2017-11-22T21:47:27.051Z,16.70
2017-11-22T21:49:54.515Z,18.65
2017-11-22T21:52:21.980Z,16.62
2017-11-22T21:54:49.443Z,20.52
2017-11-22T21:57:17.686Z,17.12
2017-11-22T21:59:45.260Z,19.35
2017-11-22T22:02:13.522Z,16.05
2017-11-22T22:04:40.987Z,17.40
2017-11-22T22:07:08.542Z,24.40
2017-11-22T22:09:36.017Z,16.05
2017-11-22T22:12:03.473Z,19.08
2017-11-22T22:14:30.960Z,27.87
2017-11-22T22:16:58.475Z,18.30
2017-11-22T22:19:26.026Z,19.40
2017-11-22T22:21:53.488Z,19.05
2017-11-22T22:24:20.948Z,19.48
2017-11-22T22:26:48.414Z,20.77
2017-11-22T22:31:52.132Z,18.33
2017-11-22T22:34:19.688Z,17.87
2017-11-22T22:36:47.229Z,18.25
2017-11-22T22:39:14.690Z,21.73
2017-11-22T22:41:42.142Z,17.85
2017-11-22T22:44:09.718Z,22.02
2017-11-22T22:46:37.258Z,14.35
2017-11-22T22:49:04.734Z,15.25
2017-11-22T22:51:32.197Z,14.15
2017-11-22T22:53:59.674Z,14.52
2017-11-22T22:56:27.271Z,18.20
2017-11-22T22:58:54.745Z,23.48
2017-11-22T23:01:22.201Z,18.45
2017-11-22T23:03:49.780Z,15.50
2017-11-22T23:06:17.332Z,16.95
2017-11-22T23:08:44.783Z,19.67
2017-11-22T23:11:12.278Z,19.20
2017-11-22T23:13:40.522Z,19.20
2017-11-22T23:16:08.022Z,19.33
2017-11-22T23:18:35.539Z,15.65
2017-11-22T23:21:03.098Z,13.23
2017-11-22T23:23:32.100Z,16.80
2017-11-22T23:26:00.328Z,16.60
2017-11-22T23:28:27.820Z,15.82
2017-11-22T23:30:55.279Z,16.05
2017-11-22T23:33:23.504Z,15.90
2017-11-22T23:35:51.027Z,16.50
2017-11-22T23:38:19.241Z,13.60
2017-11-22T23:40:46.739Z,13.48
2017-11-22T23:43:14.199Z,14.40
2017-11-22T23:45:41.751Z,15.88
2017-11-22T23:48:09.327Z,19.52
2017-11-22T23:50:37.558Z,17.00
2017-11-22T23:53:05.042Z,16.77
2017-11-22T23:55:32.660Z,15.45
2017-11-22T23:58:00.170Z,17.17
